Time;durP1;ratioP1;P1;durP2;ratioP2;P2;SDS_P1;SDS_P2;PMS_P1;PMS_P2;Temp;Humidity;BMP_temperature;BMP_pressure;BME280_temperature;BME280_humidity;BME280_pressure;Samples;Min_cycle;Max_cycle;Signal;HPM_P1;HPM_P2
2022/01/28 00:02:12;;;;;;;5.68;4.30;;;;;;;20.51;26.15;100733.28;5111590;28;20043;-56
2022/01/28 00:04:38;;;;;;;5.43;4.25;;;;;;;20.48;26.04;100732.00;5111575;28;20051;-56
2022/01/28 00:07:03;;;;;;;6.03;4.63;;;;;;;20.49;26.08;100732.81;5111582;28;20043;-56
2022/01/28 00:09:29;;;;;;;5.82;4.55;;;;;;;20.49;26.23;100735.56;5111576;28;20568;-56
2022/01/28 00:11:54;;;;;;;6.25;4.78;;;;;;;20.47;26.08;100737.91;5111471;28;20101;-56
2022/01/28 00:14:42;;;;;;;6.07;4.63;;;;;;;20.47;26.07;100746.22;5111429;28;20036;-56
2022/01/28 00:17:45;;;;;;;5.97;4.22;;;;;;;20.46;26.08;100739.88;5109550;28;20055;-56
2022/01/28 00:38:58;;;;;;;5.65;4.00;;;;;;;20.43;26.21;100767.47;5111264;28;20052;-60
2022/01/28 00:41:23;;;;;;;6.80;4.80;;;;;;;20.41;26.24;100758.66;5111061;28;20052;-61
2022/01/28 00:43:49;;;;;;;6.00;4.55;;;;;;;20.43;26.01;100775.81;5111151;28;20047;-61
2022/01/28 00:46:14;;;;;;;6.57;4.70;;;;;;;20.42;26.12;100780.56;5111164;28;20088;-62
2022/01/28 00:48:40;;;;;;;6.60;4.63;;;;;;;20.42;26.18;100780.56;5110494;28;20420;-62
2022/01/28 00:51:06;;;;;;;6.05;4.70;;;;;;;20.41;26.13;100794.78;5110907;28;20054;-62
2022/01/28 00:53:31;;;;;;;6.00;4.35;;;;;;;20.42;26.31;100799.19;5110724;28;20043;-62
2022/01/28 00:55:57;;;;;;;5.88;4.32;;;;;;;20.41;26.09;100806.72;5110810;28;20044;-61
2022/01/28 00:58:24;;;;;;;6.18;4.80;;;;;;;20.42;26.28;100821.44;5110428;28;20032;-62
2022/01/28 01:00:50;;;;;;;5.43;4.10;;;;;;;20.41;26.16;100815.06;5110854;28;20447;-62
2022/01/28 01:03:16;;;;;;;6.95;5.03;;;;;;;20.41;26.21;100822.59;5111062;28;20047;-62
2022/01/28 01:05:42;;;;;;;6.45;4.90;;;;;;;20.40;26.11;100819.00;5110959;28;20087;-62
2022/01/28 01:08:08;;;;;;;5.80;4.43;;;;;;;20.41;26.24;100817.03;5111159;28;20131;-62
2022/01/28 01:10:34;;;;;;;5.70;4.20;;;;;;;20.41;26.08;100817.03;5110455;28;20135;-62
2022/01/28 01:13:00;;;;;;;6.20;4.75;;;;;;;20.40;26.09;100812.63;5110693;28;20557;-62
2022/01/28 01:15:31;;;;;;;5.68;4.57;;;;;;;20.40;26.34;100815.41;5110057;28;20039;-62
2022/01/28 01:18:11;;;;;;;6.75;4.82;;;;;;;20.39;26.15;100811.81;5110419;28;20043;-61
2022/01/28 01:25:38;;;;;;;6.25;4.50;;;;;;;20.38;26.17;100817.72;5110148;28;20505;-62
2022/01/28 01:28:03;;;;;;;6.63;5.03;;;;;;;20.38;26.12;100814.94;5091697;28;20044;-61
2022/01/28 01:30:33;;;;;;;6.45;4.78;;;;;;;20.38;26.26;100814.94;5109587;28;20090;-62
2022/01/28 01:32:59;;;;;;;6.43;4.68;;;;;;;20.38;26.25;100815.75;5109852;28;20465;-61
2022/01/28 01:35:24;;;;;;;5.53;4.25;;;;;;;20.37;26.05;100816.91;5110247;28;20447;-62
2022/01/28 01:37:49;;;;;;;6.63;5.00;;;;;;;20.37;26.14;100813.31;5110399;28;20036;-61
2022/01/28 01:40:20;;;;;;;6.85;4.97;;;;;;;20.37;25.96;100818.88;5110152;28;20419;-62
2022/01/28 01:42:51;;;;;;;7.22;5.13;;;;;;;20.37;26.21;100822.47;5109193;28;20043;-62
2022/01/28 01:53:27;;;;;;;6.78;4.90;;;;;;;20.43;26.21;100840.56;5110012;28;20074;-62
2022/01/28 01:55:54;;;;;;;6.47;4.70;;;;;;;20.47;26.04;100837.94;5109963;28;20507;-62
2022/01/28 01:58:24;;;;;;;7.07;4.90;;;;;;;20.47;26.24;100829.59;5091843;28;20039;-61
2022/01/28 02:00:50;;;;;;;6.15;4.70;;;;;;;20.48;26.15;100832.03;5109838;28;20044;-62
2022/01/28 02:03:15;;;;;;;6.03;4.68;;;;;;;20.48;26.16;100834.00;5109637;28;20051;-62
2022/01/28 02:05:41;;;;;;;6.00;4.60;;;;;;;20.49;26.16;100833.66;5104129;28;20048;-62
2022/01/28 02:08:06;;;;;;;6.40;4.80;;;;;;;20.48;26.10;100831.22;5088804;28;20093;-58
2022/01/28 02:10:33;;;;;;;6.15;4.65;;;;;;;20.48;26.08;100831.22;5087645;28;20040;-57
2022/01/28 02:12:59;;;;;;;6.32;4.82;;;;;;;20.47;25.97;100830.44;5088781;28;20078;-57
2022/01/28 02:15:24;;;;;;;5.75;4.57;;;;;;;20.46;26.20;100833.53;5089355;28;20059;-57
2022/01/28 02:17:50;;;;;;;5.72;4.40;;;;;;;20.44;26.20;100833.88;5088726;28;20515;-58
2022/01/28 02:20:24;;;;;;;7.10;4.90;;;;;;;20.43;26.18;100828.63;5089381;28;20083;-57
2022/01/28 02:22:50;;;;;;;5.00;3.88;;;;;;;20.43;26.01;100825.84;5089198;28;20492;-57
2022/01/28 02:25:27;;;;;;;6.10;4.55;;;;;;;20.42;26.12;100813.91;5089162;28;20070;-57
2022/01/28 02:27:55;;;;;;;6.32;4.88;;;;;;;20.41;26.07;100801.16;5089038;28;20052;-57
2022/01/28 02:30:21;;;;;;;5.70;4.47;;;;;;;20.39;26.19;100806.25;5089214;28;20050;-58
2022/01/28 02:32:48;;;;;;;5.70;4.32;;;;;;;20.40;26.12;100798.72;5089202;28;20043;-57
2022/01/28 02:35:14;;;;;;;5.85;4.57;;;;;;;20.38;25.93;100799.06;5088700;28;20044;-57
2022/01/28 02:37:39;;;;;;;6.18;4.78;;;;;;;20.39;26.09;100805.44;5089180;28;20066;-57
2022/01/28 02:40:06;;;;;;;5.40;4.32;;;;;;;20.39;25.98;100784.03;5088933;28;20385;-57
2022/01/28 02:42:48;;;;;;;6.43;4.57;;;;;;;20.37;25.97;100779.97;5088775;28;20571;-56
2022/01/28 02:45:24;;;;;;;6.40;4.47;;;;;;;20.38;26.04;100796.31;5089026;28;20051;-57
2022/01/28 02:47:55;;;;;;;6.07;4.32;;;;;;;20.35;25.90;100786.66;5089011;28;20060;-57
2022/01/28 02:50:20;;;;;;;6.15;4.78;;;;;;;20.37;25.94;100793.88;5088700;28;20040;-57
2022/01/28 02:53:01;;;;;;;6.10;4.55;;;;;;;20.35;25.96;100781.09;5088833;28;20047;-62
2022/01/28 02:55:26;;;;;;;6.38;4.22;;;;;;;20.36;26.12;100776.38;5070625;28;20076;-62
2022/01/28 02:58:03;;;;;;;6.07;4.50;;;;;;;20.34;26.05;100770.31;5088749;28;20139;-62
2022/01/28 03:00:29;;;;;;;6.80;4.55;;;;;;;20.33;25.89;100769.50;5088668;28;20044;-62
2022/01/28 03:02:54;;;;;;;5.78;4.40;;;;;;;20.33;25.95;100763.97;5088591;28;20086;-57
2022/01/28 03:05:34;;;;;;;5.57;4.35;;;;;;;20.33;26.08;100754.81;5088551;28;20044;-57
2022/01/28 03:08:03;;;;;;;5.63;4.32;;;;;;;20.32;25.89;100762.34;5088627;28;20052;-57
2022/01/28 03:10:42;;;;;;;5.95;4.50;;;;;;;20.30;25.98;100747.97;5088406;28;20497;-57
2022/01/28 03:13:27;;;;;;;5.60;4.22;;;;;;;20.31;26.05;100746.00;5088156;28;20087;-61
2022/01/28 03:15:55;;;;;;;6.95;4.90;;;;;;;20.32;25.82;100747.63;5067936;28;20040;-61
2022/01/28 03:18:30;;;;;;;6.20;4.50;;;;;;;20.30;26.10;100744.38;5067970;28;20045;-61
2022/01/28 03:21:07;;;;;;;7.15;4.90;;;;;;;20.30;25.98;100747.16;5068153;28;20044;-62
2022/01/28 03:23:36;;;;;;;5.72;4.47;;;;;;;20.30;25.92;100752.72;5090034;28;20079;-57
2022/01/28 03:26:02;;;;;;;6.05;4.40;;;;;;;20.29;25.91;100746.34;5091915;28;20450;-57
2022/01/28 03:28:27;;;;;;;5.70;4.50;;;;;;;20.28;25.83;100747.47;5091952;28;20039;-57
2022/01/28 03:30:52;;;;;;;5.60;4.03;;;;;;;20.29;25.84;100742.75;5091887;28;20055;-57
2022/01/28 03:33:18;;;;;;;5.03;3.83;;;;;;;20.27;25.96;100756.97;5091955;28;20545;-57
2022/01/28 03:35:44;;;;;;;6.38;4.63;;;;;;;20.27;25.88;100762.53;5091744;28;20083;-57
2022/01/28 03:38:12;;;;;;;5.85;4.43;;;;;;;20.28;25.67;100760.56;5091679;28;20040;-57
2022/01/28 03:40:39;;;;;;;6.13;4.38;;;;;;;20.27;25.91;100767.28;5091642;28;20059;-57
2022/01/28 03:43:05;;;;;;;6.97;4.65;;;;;;;20.26;25.89;100763.69;5091674;28;20508;-57
2022/01/28 03:45:31;;;;;;;5.22;4.05;;;;;;;20.27;25.82;100764.50;5091700;28;20412;-62
2022/01/28 03:47:56;;;;;;;5.68;4.40;;;;;;;20.27;25.81;100764.50;5091665;28;20051;-62
2022/01/28 03:50:22;;;;;;;5.35;4.15;;;;;;;20.26;25.88;100772.03;5091751;28;20211;-62
2022/01/28 03:52:47;;;;;;;5.35;3.95;;;;;;;20.24;25.92;100766.00;5091617;28;20419;-62
2022/01/28 03:55:13;;;;;;;5.75;4.43;;;;;;;20.24;25.75;100774.34;5091443;28;20139;-62
2022/01/28 03:57:38;;;;;;;5.70;4.38;;;;;;;20.24;25.79;100768.78;5091432;28;20412;-62
2022/01/28 04:00:05;;;;;;;6.72;4.10;;;;;;;20.24;26.00;100771.56;5091474;28;20044;-62
2022/01/28 04:02:34;;;;;;;5.50;4.05;;;;;;;20.22;25.82;100768.31;5091252;28;20503;-62
2022/01/28 04:13:15;;;;;;;6.13;4.22;;;;;;;20.22;25.73;100761.94;5089691;28;20407;-57
2022/01/28 04:16:04;;;;;;;5.50;4.40;;;;;;;20.21;25.78;100766.66;5090830;28;20488;-57
2022/01/28 04:18:30;;;;;;;5.57;3.97;;;;;;;20.21;25.65;100765.84;5091072;28;20071;-57
2022/01/28 04:20:56;;;;;;;5.57;4.10;;;;;;;20.20;25.55;100761.44;5090993;28;20417;-57
2022/01/28 04:23:21;;;;;;;5.30;4.18;;;;;;;20.20;25.76;100770.59;5090989;28;20047;-56
2022/01/28 04:25:47;;;;;;;5.78;4.28;;;;;;;20.21;25.77;100771.41;5091090;28;20458;-57
2022/01/28 04:28:12;;;;;;;6.18;4.50;;;;;;;20.20;25.75;100767.81;5090755;28;20048;-56
2022/01/28 04:30:38;;;;;;;7.10;4.72;;;;;;;20.21;25.79;100769.44;5090811;28;20028;-57
2022/01/28 04:33:03;;;;;;;5.80;4.38;;;;;;;20.19;25.60;100771.75;5090238;28;20044;-57
2022/01/28 04:35:29;;;;;;;6.15;4.57;;;;;;;20.18;25.79;100772.91;5090390;28;20048;-57
2022/01/28 04:38:27;;;;;;;5.70;4.38;;;;;;;20.16;25.79;100786.31;5090794;28;20040;-57
2022/01/28 04:43:31;;;;;;;5.85;4.20;;;;;;;20.18;25.76;100784.00;5090683;28;20052;-57
2022/01/28 04:54:01;;;;;;;5.43;4.25;;;;;;;20.17;25.62;100795.47;5090584;28;20048;-56
2022/01/28 05:15:59;;;;;;;5.22;4.15;;;;;;;20.32;25.53;100862.38;5090072;28;20488;-56
2022/01/28 05:28:42;;;;;;;5.45;4.10;;;;;;;20.25;25.56;100861.28;5007820;28;20045;-56
2022/01/28 05:31:08;;;;;;;5.55;4.22;;;;;;;20.26;25.43;100874.81;5007329;28;20050;-56
2022/01/28 05:33:33;;;;;;;5.38;3.95;;;;;;;20.27;25.41;100886.75;5007555;28;20042;-56
2022/01/28 05:35:59;;;;;;;5.63;4.25;;;;;;;20.25;25.57;100875.97;5069184;28;20052;-57
2022/01/28 05:38:24;;;;;;;6.10;4.20;;;;;;;20.27;25.58;100893.13;5088672;28;20459;-57
2022/01/28 05:40:50;;;;;;;6.10;4.65;;;;;;;20.27;25.36;100898.69;5089592;28;20089;-57
2022/01/28 05:43:15;;;;;;;4.95;3.67;;;;;;;20.28;25.53;100899.50;5089248;28;20398;-57
2022/01/28 05:45:41;;;;;;;6.00;4.53;;;;;;;20.27;25.54;100904.22;5088159;28;20119;-57
2022/01/28 05:48:07;;;;;;;5.60;4.10;;;;;;;20.27;25.25;100909.78;5089509;28;20055;-57
2022/01/28 05:50:32;;;;;;;5.40;4.10;;;;;;;20.28;25.48;100911.41;5088618;28;20173;-57
2022/01/28 05:53:01;;;;;;;5.63;4.30;;;;;;;20.28;25.42;100910.59;5088935;28;20059;-55
2022/01/28 05:55:26;;;;;;;5.78;4.50;;;;;;;20.28;25.39;100916.16;5088992;28;20128;-56
2022/01/28 05:57:52;;;;;;;5.85;4.45;;;;;;;20.30;25.57;100911.09;5089343;28;20091;-56
2022/01/28 06:00:18;;;;;;;6.22;4.30;;;;;;;20.30;25.36;100920.25;5089294;28;20123;-56
2022/01/28 06:02:44;;;;;;;5.57;4.20;;;;;;;20.31;25.47;100912.72;5089406;28;20078;-56
2022/01/28 06:05:10;;;;;;;6.80;4.32;;;;;;;20.31;25.55;100921.88;5089276;28;20614;-55
2022/01/28 06:07:41;;;;;;;6.00;4.15;;;;;;;20.31;25.40;100916.31;5089147;28;20040;-55
2022/01/28 06:10:08;;;;;;;6.07;4.38;;;;;;;20.32;25.53;100917.13;5089004;28;20500;-55
2022/01/28 06:12:45;;;;;;;5.95;4.40;;;;;;;20.30;25.36;100906.34;5088910;28;20040;-56
2022/01/28 06:15:11;;;;;;;5.75;4.30;;;;;;;20.33;25.50;100911.22;5088899;28;20173;-56
2022/01/28 06:17:38;;;;;;;5.93;4.25;;;;;;;20.33;25.42;100910.41;5085753;28;20054;-56
2022/01/28 06:20:06;;;;;;;5.72;4.10;;;;;;;20.33;25.22;100902.09;5089012;28;20044;-55
2022/01/28 06:22:32;;;;;;;5.57;4.15;;;;;;;20.33;25.24;100902.91;5089026;28;20519;-56
2022/01/28 06:24:57;;;;;;;5.25;4.13;;;;;;;20.32;25.36;100906.81;5088826;28;20048;-58
2022/01/28 06:27:23;;;;;;;5.60;4.10;;;;;;;20.33;25.26;100908.44;5088839;28;20131;-56
2022/01/28 06:29:49;;;;;;;5.57;4.13;;;;;;;20.34;25.26;100903.72;5088680;28;20044;-56
2022/01/28 06:32:16;;;;;;;5.57;3.92;;;;;;;20.35;25.33;100897.00;5088259;28;20580;-56
2022/01/28 06:34:42;;;;;;;5.43;3.88;;;;;;;20.33;25.14;100900.13;5088536;28;20048;-56
2022/01/28 06:37:08;;;;;;;5.53;4.13;;;;;;;20.35;25.15;100899.78;5088457;28;20052;-56
2022/01/28 06:39:33;;;;;;;5.75;4.03;;;;;;;20.34;25.36;100903.72;5088552;28;20170;-56
2022/01/28 06:42:00;;;;;;;5.60;3.95;;;;;;;20.34;25.08;100910.06;5088684;28;20130;-56
2022/01/28 06:44:25;;;;;;;6.20;4.60;;;;;;;20.34;25.20;100904.53;5088577;28;20461;-56
2022/01/28 06:46:51;;;;;;;5.93;4.47;;;;;;;20.34;25.24;100910.06;5088406;28;20649;-56
2022/01/28 06:49:17;;;;;;;5.95;4.38;;;;;;;20.33;25.19;100902.91;5088331;28;20028;-56
2022/01/28 06:51:43;;;;;;;5.55;3.90;;;;;;;20.33;25.28;100907.63;5088427;28;20415;-57
2022/01/28 06:54:08;;;;;;;5.72;4.35;;;;;;;20.35;25.03;100913.66;5088310;28;20048;-56
2022/01/28 06:56:33;;;;;;;5.60;4.18;;;;;;;20.34;25.21;100918.41;5087463;28;20410;-55
2022/01/28 06:58:59;;;;;;;6.38;4.55;;;;;;;20.34;25.12;100925.94;5087624;28;20040;-55
2022/01/28 07:01:25;;;;;;;5.55;4.20;;;;;;;20.34;25.14;100920.38;5088158;28;20076;-56
2022/01/28 07:03:50;;;;;;;7.13;4.57;;;;;;;20.34;25.05;100914.81;5088547;28;20078;-56
2022/01/28 07:06:16;;;;;;;6.20;4.28;;;;;;;20.33;25.13;100919.56;5088442;28;20044;-54
2022/01/28 07:08:41;;;;;;;5.97;4.25;;;;;;;20.33;25.01;100925.13;5088438;28;20082;-55
2022/01/28 07:11:06;;;;;;;5.55;4.20;;;;;;;20.34;25.08;100926.75;5087341;28;20051;-54
2022/01/28 07:13:32;;;;;;;5.88;4.55;;;;;;;20.33;24.95;100919.56;5087924;28;20040;-56
2022/01/28 07:15:58;;;;;;;5.72;4.45;;;;;;;20.35;24.96;100922.00;5088012;28;20041;-56
2022/01/28 07:18:24;;;;;;;6.00;4.20;;;;;;;20.33;25.11;100925.13;5087997;28;20040;-55
2022/01/28 07:20:49;;;;;;;5.55;4.15;;;;;;;20.33;25.09;100929.88;5086385;28;20443;-56
2022/01/28 07:23:15;;;;;;;6.10;4.68;;;;;;;20.34;25.00;100934.28;5087595;28;20032;-54
2022/01/28 07:25:40;;;;;;;5.68;4.20;;;;;;;20.32;24.98;100939.38;5069520;28;20043;-59
2022/01/28 07:28:06;;;;;;;5.28;3.90;;;;;;;20.34;25.05;100942.63;5087418;28;20535;-59
2022/01/28 07:30:31;;;;;;;5.80;3.92;;;;;;;20.32;24.97;100940.19;5087568;28;20039;-59
2022/01/28 07:32:59;;;;;;;5.93;4.57;;;;;;;20.32;24.92;100944.91;5086977;28;20067;-59
2022/01/28 07:35:25;;;;;;;5.50;4.15;;;;;;;20.32;25.08;100940.19;5079639;28;20041;-59
2022/01/28 07:37:50;;;;;;;4.97;4.07;;;;;;;20.33;25.11;100958.47;5065833;28;20040;-58
2022/01/28 07:40:16;;;;;;;5.40;4.07;;;;;;;20.31;24.94;100958.00;5066839;28;20041;-59
2022/01/28 07:42:42;;;;;;;5.95;4.10;;;;;;;20.32;24.93;100959.63;5049152;28;20080;-59
2022/01/28 07:45:13;;;;;;;5.28;4.03;;;;;;;20.33;24.86;100955.69;5067333;28;20037;-59
2022/01/28 07:47:39;;;;;;;5.57;4.05;;;;;;;20.32;25.03;100973.53;5067202;28;20040;-58
2022/01/28 07:50:06;;;;;;;5.45;4.07;;;;;;;20.32;25.00;100967.16;5085689;28;20044;-59
2022/01/28 07:52:32;;;;;;;6.00;4.50;;;;;;;20.31;25.11;100974.66;5082957;28;20032;-60
2022/01/28 07:54:57;;;;;;;6.25;4.65;;;;;;;20.31;25.04;100982.19;5081114;28;20058;-57
2022/01/28 07:57:23;;;;;;;4.85;3.97;;;;;;;20.32;24.86;100986.59;5081730;28;20040;-57
2022/01/28 07:59:48;;;;;;;6.22;4.25;;;;;;;20.33;24.90;100993.78;5082660;28;20400;-58
2022/01/28 08:02:14;;;;;;;8.15;4.20;;;;;;;20.34;25.37;100987.06;5083685;28;20770;-58
2022/01/28 08:04:40;;;;;;;8.80;4.70;;;;;;;20.38;24.88;100984.47;5081458;28;20035;-58
2022/01/28 08:07:05;;;;;;;5.28;3.80;;;;;;;20.40;25.16;100996.88;5084591;28;20032;-59
2022/01/28 08:09:31;;;;;;;10.10;4.22;;;;;;;20.47;25.10;100988.03;5085049;28;20044;-57
2022/01/28 08:11:56;;;;;;;6.93;3.72;;;;;;;20.50;25.09;100996.53;5080212;28;20055;-59
2022/01/28 08:14:22;;;;;;;5.47;3.80;;;;;;;20.55;25.69;100995.50;5079199;28;20051;-59
2022/01/28 08:16:47;;;;;;;6.53;4.20;;;;;;;20.58;25.57;100992.91;5076745;28;20436;-58
2022/01/28 08:19:12;;;;;;;11.00;4.28;;;;;;;20.60;25.33;100993.38;5076394;28;20134;-59
2022/01/28 08:21:38;;;;;;;6.15;3.90;;;;;;;20.65;25.54;100997.94;5078973;28;20044;-59
2022/01/28 08:24:04;;;;;;;5.40;4.10;;;;;;;20.69;25.44;100996.09;5072161;28;20424;-58
2022/01/28 08:26:29;;;;;;;7.35;3.83;;;;;;;20.71;25.35;100988.22;5068665;28;20987;-56
2022/01/28 08:28:55;;;;;;;5.88;4.30;;;;;;;20.75;25.53;100991.97;5078058;28;20101;-58
2022/01/28 08:31:20;;;;;;;5.55;3.95;;;;;;;20.78;25.57;100996.03;5085337;28;20048;-58
2022/01/28 08:33:46;;;;;;;5.40;3.97;;;;;;;20.82;25.34;100997.00;5089948;28;20052;-56
2022/01/28 08:36:11;;;;;;;5.20;3.60;;;;;;;20.85;25.20;100999.09;5080908;28;20544;-57
2022/01/28 08:38:44;;;;;;;4.90;3.63;;;;;;;20.88;25.53;101006.78;5085144;28;20083;-58
2022/01/28 08:41:12;;;;;;;6.00;3.97;;;;;;;20.92;25.44;101010.50;5087553;28;20040;-56
2022/01/28 08:43:41;;;;;;;4.90;3.65;;;;;;;20.93;25.29;101012.13;5070880;28;20040;-51
2022/01/28 08:46:07;;;;;;;4.90;3.70;;;;;;;20.96;25.19;101022.59;5079035;28;20054;-55
2022/01/28 08:48:33;;;;;;;5.68;3.80;;;;;;;20.99;25.42;101032.22;5083305;28;20400;-59
2022/01/28 08:50:59;;;;;;;6.65;3.58;;;;;;;21.03;25.25;101030.44;5082204;28;20414;-52
2022/01/28 08:53:24;;;;;;;5.10;3.53;;;;;;;21.05;25.04;101040.06;5086608;28;20067;-50
2022/01/28 08:55:50;;;;;;;5.78;4.15;;;;;;;21.08;25.52;101041.38;5080242;28;21209;-58
2022/01/28 08:58:15;;;;;;;5.90;4.25;;;;;;;21.08;25.15;101042.19;5087310;28;20040;-53
2022/01/28 09:00:45;;;;;;;5.32;3.78;;;;;;;21.11;25.40;101038.72;5073815;28;20051;-53
2022/01/28 09:03:16;;;;;;;5.45;3.80;;;;;;;21.13;25.12;101039.19;5081621;28;20108;-58
2022/01/28 09:05:42;;;;;;;5.30;3.70;;;;;;;21.14;25.43;101043.59;5082341;28;20054;-57
2022/01/28 09:08:09;;;;;;;6.10;4.03;;;;;;;21.17;25.15;101054.06;5081796;28;20052;-56
2022/01/28 09:10:37;;;;;;;5.38;3.90;;;;;;;21.19;25.06;101050.94;5080647;28;20408;-57
2022/01/28 09:15:32;;;;;;;5.88;4.13;;;;;;;21.22;25.06;101053.06;5088411;28;20044;-58
2022/01/28 09:17:58;;;;;;;5.50;4.00;;;;;;;21.24;25.09;101049.94;5084477;28;20044;-58
2022/01/28 09:20:24;;;;;;;4.88;3.42;;;;;;;21.26;24.99;101051.22;5079330;28;20044;-58
2022/01/28 09:22:49;;;;;;;7.18;3.70;;;;;;;21.28;24.94;101057.28;5075030;28;20649;-57
2022/01/28 09:25:15;;;;;;;5.13;3.95;;;;;;;21.29;25.20;101061.72;5082089;28;20059;-58
2022/01/28 09:27:41;;;;;;;5.10;3.50;;;;;;;21.31;24.97;101064.97;5081413;28;20480;-54
2022/01/28 09:30:07;;;;;;;7.53;3.85;;;;;;;21.31;24.97;101067.75;5074556;28;20505;-54
2022/01/28 09:32:32;;;;;;;6.10;4.07;;;;;;;21.31;25.23;101064.97;5073076;28;20444;-55
2022/01/28 09:34:58;;;;;;;6.90;4.13;;;;;;;21.33;25.01;101070.19;5067470;28;20040;-54
2022/01/28 09:37:23;;;;;;;8.02;4.57;;;;;;;21.30;25.20;101076.44;5082245;28;20096;-59
2022/01/28 09:39:49;;;;;;;6.18;4.13;;;;;;;21.31;25.42;101069.72;5067341;28;20052;-54
2022/01/28 09:42:17;;;;;;;7.35;4.45;;;;;;;21.30;25.53;101068.91;5076216;28;20032;-72
2022/01/28 09:44:43;;;;;;;8.38;4.50;;;;;;;21.31;25.56;101073.31;5062281;28;20055;-59
2022/01/28 09:47:13;;;;;;;6.43;4.03;;;;;;;21.31;25.69;101075.28;5079211;28;20104;-59
2022/01/28 09:49:40;;;;;;;5.40;4.10;;;;;;;21.27;25.54;101069.53;5073329;28;20479;-59
2022/01/28 09:52:08;;;;;;;10.15;4.80;;;;;;;21.23;25.82;101060.25;5074299;28;20040;-59
2022/01/28 09:54:35;;;;;;;7.38;4.30;;;;;;;21.25;25.74;101065.47;5083767;28;20036;-58
2022/01/28 09:57:02;;;;;;;5.60;4.00;;;;;;;21.25;25.97;101068.25;5080698;28;20040;-61
2022/01/28 09:59:28;;;;;;;10.00;5.28;;;;;;;21.25;25.89;101066.28;5081005;28;20584;-59
2022/01/28 10:01:54;;;;;;;11.60;4.63;;;;;;;21.24;25.59;101067.44;5075858;28;20043;-60
2022/01/28 10:04:21;;;;;;;13.05;5.50;;;;;;;21.22;25.69;101069.75;5074971;28;20051;-61
2022/01/28 10:06:48;;;;;;;10.63;5.00;;;;;;;21.23;25.80;101078.91;5079499;28;20151;-60
2022/01/28 10:09:17;;;;;;;9.02;4.28;;;;;;;21.19;25.68;101077.94;5076428;28;20066;-61
2022/01/28 10:11:45;;;;;;;8.15;4.65;;;;;;;21.49;26.11;101074.00;5081810;28;20048;-59
2022/01/28 10:14:18;;;;;;;7.30;4.18;;;;;;;21.37;25.61;101074.75;5086121;28;20094;-59
2022/01/28 10:16:56;;;;;;;7.77;4.10;;;;;;;21.30;25.88;101085.59;5082192;28;20110;-60
2022/01/28 10:19:27;;;;;;;6.80;4.10;;;;;;;21.27;25.81;101085.41;5082857;28;20344;-59
2022/01/28 10:21:54;;;;;;;6.28;4.18;;;;;;;21.22;25.71;101091.16;5078170;28;20055;-58
2022/01/28 10:24:25;;;;;;;6.28;3.63;;;;;;;21.19;25.75;101101.03;5080588;28;20066;-45
2022/01/28 10:27:07;;;;;;;7.32;4.15;;;;;;;21.19;25.71;101095.44;5079369;28;20044;-59
2022/01/28 10:29:39;;;;;;;6.97;4.03;;;;;;;21.17;25.67;101104.16;5086581;28;20040;-59
2022/01/28 10:32:09;;;;;;;5.73;4.00;;;;;;;21.18;25.91;101127.22;5073137;28;20048;-57
2022/01/28 10:34:49;;;;;;;9.68;4.13;;;;;;;21.12;26.13;101117.44;5088169;28;20059;-57
2022/01/28 10:37:24;;;;;;;8.95;3.90;;;;;;;21.14;26.02;101117.91;5084970;28;20040;-59
2022/01/28 10:39:58;;;;;;;5.50;3.97;;;;;;;21.17;26.00;101117.25;5073688;28;20044;-59
2022/01/28 10:42:52;;;;;;;7.25;4.35;;;;;;;21.15;26.06;101116.78;5075123;28;20092;-58
2022/01/28 10:45:24;;;;;;;5.93;4.22;;;;;;;21.13;26.01;101113.50;5077384;28;20043;-58
2022/01/28 10:47:54;;;;;;;;;;;;;;;21.17;25.99;101111.69;5076429;28;20043;-59
2022/01/28 10:50:33;;;;;;;6.60;4.50;;;;;;;21.16;25.84;101110.06;5074385;28;19916;-59
2022/01/28 10:53:07;;;;;;;6.43;4.25;;;;;;;21.14;26.01;101095.63;5075155;28;20062;-64
2022/01/28 10:55:36;;;;;;;5.57;3.95;;;;;;;21.15;26.03;101094.50;5084360;28;20048;-63
2022/01/28 10:58:05;;;;;;;7.65;3.90;;;;;;;21.14;25.95;101087.28;5083324;28;20036;-60
2022/01/28 11:00:36;;;;;;;6.80;4.22;;;;;;;21.17;25.99;101092.19;5084695;28;20511;-60
2022/01/28 11:03:04;;;;;;;8.10;4.65;;;;;;;21.17;26.17;101092.19;5083874;28;20044;-58
2022/01/28 11:05:33;;;;;;;12.15;5.60;;;;;;;21.17;26.28;101086.63;5085637;28;20044;-61
2022/01/28 11:08:00;;;;;;;16.27;5.15;;;;;;;21.17;26.41;101081.06;5081612;28;20827;-58
2022/01/28 11:10:25;;;;;;;9.45;4.75;;;;;;;21.15;26.01;101088.94;5086571;28;20040;-58
2022/01/28 11:12:52;;;;;;;9.40;3.83;;;;;;;21.17;26.21;101081.88;5085908;28;20416;-57
2022/01/28 11:15:18;;;;;;;7.93;4.78;;;;;;;21.16;25.93;101073.88;5086018;28;20059;-57
2022/01/28 11:17:43;;;;;;;15.63;4.68;;;;;;;21.16;26.03;101077.47;5083501;28;20048;-57
2022/01/28 11:20:10;;;;;;;8.32;4.30;;;;;;;21.14;25.93;101065.03;5083730;28;20085;-57
2022/01/28 11:22:52;;;;;;;6.13;4.28;;;;;;;21.14;25.61;101062.25;5084927;28;20504;-57
2022/01/28 11:25:42;;;;;;;9.90;4.30;;;;;;;21.11;25.77;101063.75;5079558;28;20076;-58
2022/01/28 11:28:11;;;;;;;6.35;4.22;;;;;;;21.09;25.64;101054.94;5070300;28;20431;-58
2022/01/28 11:30:45;;;;;;;5.75;4.28;;;;;;;21.09;25.54;101051.34;5080065;28;20048;-58
2022/01/28 11:33:11;;;;;;;6.65;4.07;;;;;;;21.11;25.53;101054.59;5072132;28;20044;-57
2022/01/28 11:35:40;;;;;;;6.43;4.18;;;;;;;21.10;25.58;101047.41;5079280;28;20048;-57
2022/01/28 11:38:24;;;;;;;6.18;4.30;;;;;;;21.08;25.54;101049.72;5069782;28;20041;-58
2022/01/28 11:40:54;;;;;;;5.45;3.67;;;;;;;21.09;25.74;101051.34;5077356;28;20071;-58
2022/01/28 11:43:24;;;;;;;6.30;4.28;;;;;;;21.09;25.78;101043.00;5087174;28;20186;-58
2022/01/28 11:46:23;;;;;;;5.72;4.25;;;;;;;21.07;25.92;101036.94;5090976;28;20055;-58
2022/01/28 11:48:52;;;;;;;6.97;4.22;;;;;;;21.09;25.52;101029.06;5076045;28;20070;-58
2022/01/28 11:51:20;;;;;;;5.78;4.05;;;;;;;21.07;25.66;101034.97;5089533;28;20097;-58
2022/01/28 11:54:00;;;;;;;6.03;4.57;;;;;;;21.06;25.49;101024.97;5083919;28;20094;-58
2022/01/28 11:56:26;;;;;;;8.15;4.05;;;;;;;21.08;25.48;101028.25;5082886;28;20059;-57
2022/01/28 11:59:02;;;;;;;6.93;4.45;;;;;;;21.06;25.74;101019.41;5089065;28;20703;-58
2022/01/28 12:01:40;;;;;;;6.53;4.60;;;;;;;21.06;25.54;101024.16;5080821;28;20040;-58
2022/01/28 12:04:24;;;;;;;6.35;4.55;;;;;;;21.07;25.34;101011.88;5080923;28;20479;-58
2022/01/28 12:07:13;;;;;;;6.30;4.78;;;;;;;21.07;25.34;101009.09;5084497;28;20068;-58
2022/01/28 12:09:39;;;;;;;5.90;4.57;;;;;;;21.08;25.47;101006.00;5089604;28;20741;-57
2022/01/28 12:12:10;;;;;;;6.93;4.85;;;;;;;21.07;25.54;100997.97;5089440;28;20064;-58
2022/01/28 12:15:17;;;;;;;6.95;4.32;;;;;;;21.06;25.57;100991.59;5085072;28;20058;-58
2022/01/28 12:17:49;;;;;;;6.47;4.60;;;;;;;21.08;25.55;100989.31;5085479;28;20039;-58
2022/01/28 12:20:24;;;;;;;6.30;4.35;;;;;;;21.08;25.23;100986.53;5086936;28;20062;-58
2022/01/28 12:23:10;;;;;;;6.82;4.10;;;;;;;21.07;25.44;100984.88;5085161;28;20084;-58
2022/01/28 12:25:36;;;;;;;6.03;4.47;;;;;;;21.09;25.21;100974.25;5089764;28;20376;-57
2022/01/28 12:28:17;;;;;;;6.22;4.65;;;;;;;21.07;25.38;100965.41;5083998;28;20603;-46
2022/01/28 12:31:02;;;;;;;5.97;4.38;;;;;;;21.10;25.43;100963.94;5088723;28;20047;-47
2022/01/28 12:33:33;;;;;;;5.93;4.65;;;;;;;21.09;25.39;100952.00;5088730;28;20056;-46
2022/01/28 12:36:05;;;;;;;6.43;4.95;;;;;;;21.10;25.64;100947.25;5088196;28;20412;-47
2022/01/28 12:38:32;;;;;;;9.20;5.15;;;;;;;21.09;25.69;100953.97;5087937;28;20048;-46
2022/01/28 12:41:06;;;;;;;7.63;5.07;;;;;;;21.09;25.41;100943.66;5081728;28;20040;-47
2022/01/28 12:43:33;;;;;;;7.15;5.20;;;;;;;21.09;25.71;100946.44;5072123;28;20036;-48
2022/01/28 12:46:00;;;;;;;6.47;4.95;;;;;;;21.13;25.98;100940.97;5083593;28;20040;-53
2022/01/28 12:48:26;;;;;;;6.25;4.65;;;;;;;21.15;26.23;100930.34;5084650;28;20507;-53
2022/01/28 12:50:53;;;;;;;8.35;4.68;;;;;;;21.15;26.33;100933.13;5086256;28;20136;-47
2022/01/28 12:53:44;;;;;;;6.57;4.40;;;;;;;21.21;26.53;100926.19;5087831;28;20047;-48
2022/01/28 12:56:12;;;;;;;9.57;4.55;;;;;;;21.28;26.39;100920.09;5087803;28;20518;-46